createdAt,value
2018-06-10T00:00:43.568Z,20.93
2018-06-10T00:01:43.736Z,20.97
2018-06-10T00:02:43.907Z,21.03
2018-06-10T00:03:44.074Z,21.03
2018-06-10T00:04:44.235Z,21.02
2018-06-10T00:05:44.402Z,21.03
2018-06-10T00:06:44.574Z,20.92
2018-06-10T00:07:44.741Z,20.93
2018-06-10T00:10:27.292Z,20.97
2018-06-10T00:11:27.461Z,20.93
2018-06-10T00:12:27.631Z,20.69
2018-06-10T00:13:27.799Z,20.69
2018-06-10T00:14:27.967Z,20.55
2018-06-10T00:15:28.140Z,20.62
2018-06-10T00:16:28.312Z,20.66
2018-06-10T00:17:28.475Z,20.63
2018-06-10T00:18:28.641Z,20.62
2018-06-10T00:19:28.809Z,20.65
2018-06-10T00:22:11.429Z,20.84
2018-06-10T00:23:11.474Z,20.77
2018-06-10T00:24:11.644Z,20.75
2018-06-10T00:25:11.812Z,20.65
2018-06-10T00:26:19.437Z,20.74
2018-06-10T00:27:12.101Z,20.66
2018-06-10T00:28:12.268Z,20.55
2018-06-10T00:29:12.436Z,20.31
2018-06-10T00:30:13.138Z,20.21
2018-06-10T00:31:12.808Z,20.10
2018-06-10T00:32:12.974Z,19.96
2018-06-10T00:33:13.135Z,19.88
2018-06-10T00:34:13.306Z,19.91
2018-06-10T00:35:13.478Z,19.81
2018-06-10T00:38:56.909Z,19.88
2018-06-10T00:39:57.072Z,19.99
2018-06-10T00:40:57.252Z,20.03
2018-06-10T00:41:57.418Z,20.06
2018-06-10T00:42:57.585Z,20.06
2018-06-10T00:43:57.754Z,20.07
2018-06-10T00:44:57.924Z,20.09
2018-06-10T00:45:58.090Z,20.11
2018-06-10T00:46:58.266Z,20.25
2018-06-10T00:47:58.432Z,20.29
2018-06-10T00:48:58.608Z,20.32
2018-06-10T00:49:58.781Z,20.41
2018-06-10T00:50:58.938Z,20.32
2018-06-10T00:51:59.116Z,20.39
2018-06-10T00:52:59.278Z,20.26
2018-06-10T00:55:41.552Z,19.84
2018-06-10T00:56:41.722Z,19.73
2018-06-10T00:57:41.888Z,19.77
2018-06-10T00:58:42.055Z,19.86
2018-06-10T00:59:42.224Z,19.96
2018-06-10T01:00:42.392Z,19.92
2018-06-10T01:01:42.558Z,20.00
2018-06-10T01:02:42.725Z,19.89
2018-06-10T01:03:42.893Z,19.81
2018-06-10T01:04:43.059Z,19.79
2018-06-10T01:05:43.227Z,19.74
2018-06-10T01:06:43.399Z,19.71
2018-06-10T01:07:43.567Z,19.81
2018-06-10T01:08:43.740Z,19.76
2018-06-10T01:09:43.915Z,19.79
2018-06-10T01:12:16.932Z,19.59
2018-06-10T01:13:17.095Z,19.69
2018-06-10T01:14:17.269Z,19.70
2018-06-10T01:15:17.435Z,19.73
2018-06-10T01:16:20.224Z,19.63
2018-06-10T01:17:17.763Z,19.73
2018-06-10T01:18:17.936Z,19.62
2018-06-10T01:19:18.113Z,19.66
2018-06-10T01:20:18.289Z,19.51
2018-06-10T01:21:18.452Z,19.66
2018-06-10T01:22:18.621Z,19.71
2018-06-10T01:23:18.799Z,19.84
2018-06-10T01:24:18.966Z,19.79
2018-06-10T01:25:19.139Z,19.85
2018-06-10T01:26:19.302Z,19.89
2018-06-10T01:29:01.579Z,20.07
2018-06-10T01:30:01.738Z,20.09
2018-06-10T01:31:01.907Z,20.11
2018-06-10T01:32:02.077Z,20.13
2018-06-10T01:33:02.262Z,20.31
2018-06-10T01:34:02.410Z,20.24
2018-06-10T01:35:02.582Z,20.25
2018-06-10T01:36:02.748Z,20.25
2018-06-10T01:37:02.912Z,20.18
2018-06-10T01:38:03.069Z,19.95
2018-06-10T01:39:03.247Z,19.85
2018-06-10T01:40:03.410Z,19.71
2018-06-10T01:41:03.585Z,19.74
2018-06-10T01:42:03.754Z,19.70
2018-06-10T01:43:03.947Z,19.82
2018-06-10T01:48:14.898Z,20.11
2018-06-10T01:49:14.696Z,20.26
2018-06-10T01:50:14.866Z,20.19
2018-06-10T01:51:15.029Z,20.34
2018-06-10T01:52:15.207Z,20.32
2018-06-10T01:53:18.547Z,20.36
2018-06-10T01:54:15.511Z,20.37
2018-06-10T01:55:15.700Z,20.26
2018-06-10T01:56:15.845Z,20.19
2018-06-10T01:57:16.042Z,20.06
2018-06-10T01:58:16.212Z,20.25
2018-06-10T01:59:16.387Z,20.09
2018-06-10T02:00:16.548Z,20.04
2018-06-10T02:01:16.727Z,20.03
2018-06-10T02:02:16.893Z,20.10
2018-06-10T02:04:59.465Z,20.19
2018-06-10T02:05:59.635Z,20.16
2018-06-10T02:06:59.803Z,20.22
2018-06-10T02:07:59.971Z,20.31
2018-06-10T02:09:00.135Z,20.22
2018-06-10T02:10:00.297Z,20.29
2018-06-10T02:11:00.476Z,20.26
2018-06-10T02:12:00.647Z,20.26
2018-06-10T02:13:00.810Z,20.34
2018-06-10T02:14:00.977Z,20.40
2018-06-10T02:16:43.251Z,20.29
2018-06-10T02:17:43.420Z,20.28
2018-06-10T02:18:43.598Z,20.26
2018-06-10T02:19:43.756Z,20.28
2018-06-10T02:20:43.931Z,20.29
2018-06-10T02:21:44.098Z,20.25
2018-06-10T02:22:44.265Z,20.32
2018-06-10T02:23:44.432Z,20.22
2018-06-10T02:24:44.602Z,20.29
2018-06-10T02:25:44.760Z,20.25
2018-06-10T02:28:27.029Z,20.25
2018-06-10T02:29:27.211Z,20.21
2018-06-10T02:30:27.383Z,20.24
2018-06-10T02:31:27.536Z,20.19
2018-06-10T02:32:27.721Z,20.29
2018-06-10T02:33:27.945Z,20.26
2018-06-10T02:34:28.103Z,20.26
2018-06-10T02:35:28.269Z,20.34
2018-06-10T02:36:28.436Z,20.26
2018-06-10T02:37:28.607Z,20.32
2018-06-10T02:38:29.571Z,20.34
2018-06-10T02:39:28.983Z,20.34
2018-06-10T02:40:29.153Z,20.36
2018-06-10T02:41:29.328Z,20.37
2018-06-10T02:42:29.498Z,20.39
2018-06-10T02:45:11.754Z,20.41
2018-06-10T02:46:11.931Z,20.34
2018-06-10T02:47:12.100Z,19.94
2018-06-10T02:48:12.273Z,19.71
2018-06-10T02:49:12.450Z,19.82
2018-06-10T02:50:12.613Z,19.82
2018-06-10T02:51:12.803Z,19.76
2018-06-10T02:52:12.954Z,19.86
2018-06-10T02:53:13.124Z,19.85
2018-06-10T02:54:13.294Z,19.94
2018-06-10T02:55:13.458Z,19.88
2018-06-10T02:56:13.626Z,19.86
2018-06-10T02:57:13.793Z,19.84
2018-06-10T02:58:13.969Z,19.84
2018-06-10T02:59:14.132Z,19.74
2018-06-10T03:01:56.689Z,19.84
2018-06-10T03:02:56.861Z,19.86
2018-06-10T03:03:57.039Z,19.84
2018-06-10T03:04:57.200Z,19.96
2018-06-10T03:05:57.369Z,19.95
2018-06-10T03:06:57.540Z,20.09
2018-06-10T03:07:57.794Z,20.06
2018-06-10T03:08:57.872Z,20.10
2018-06-10T03:09:58.042Z,20.07
2018-06-10T03:10:58.209Z,20.19
2018-06-10T03:11:58.384Z,20.19
2018-06-10T03:12:58.552Z,20.28
2018-06-10T03:13:58.718Z,20.31
2018-06-10T03:14:58.888Z,20.16
2018-06-10T03:15:59.059Z,19.96
2018-06-10T03:18:41.635Z,19.82
2018-06-10T03:19:41.810Z,19.81
2018-06-10T03:20:41.979Z,19.73
2018-06-10T03:21:42.145Z,19.62
2018-06-10T03:22:42.304Z,19.64
2018-06-10T03:23:42.477Z,19.70
2018-06-10T03:24:42.649Z,19.74
2018-06-10T03:25:42.811Z,19.51
2018-06-10T03:26:42.983Z,19.71
2018-06-10T03:27:43.797Z,19.76
2018-06-10T03:28:43.316Z,19.81
2018-06-10T03:29:43.484Z,19.82
2018-06-10T03:30:43.657Z,19.82
2018-06-10T03:31:43.814Z,19.85
2018-06-10T03:32:43.983Z,19.77
2018-06-10T03:35:16.269Z,19.91
2018-06-10T03:36:16.438Z,19.91
2018-06-10T03:37:16.607Z,19.81
2018-06-10T03:38:16.772Z,19.82
2018-06-10T03:39:16.942Z,19.71
2018-06-10T03:40:18.779Z,19.56
2018-06-10T03:41:17.324Z,19.47
2018-06-10T03:42:17.490Z,19.39
2018-06-10T03:43:17.674Z,19.44
2018-06-10T03:44:17.840Z,19.49
2018-06-10T03:47:00.117Z,19.74
2018-06-10T03:48:00.300Z,19.79
2018-06-10T03:49:00.471Z,19.85
2018-06-10T03:50:00.639Z,19.89
2018-06-10T03:51:00.807Z,20.11
2018-06-10T03:52:00.974Z,20.11
2018-06-10T03:53:01.142Z,20.02
2018-06-10T03:54:01.309Z,20.00
2018-06-10T03:55:01.486Z,20.04
2018-06-10T03:56:01.651Z,19.92
2018-06-10T03:57:01.818Z,19.96
2018-06-10T03:58:01.989Z,20.03
2018-06-10T03:59:02.156Z,20.04
2018-06-10T04:00:02.325Z,20.16
2018-06-10T04:01:02.496Z,20.21
2018-06-10T04:03:35.454Z,20.22
2018-06-10T04:04:35.388Z,20.26
2018-06-10T04:05:35.567Z,20.26
2018-06-10T04:06:35.739Z,20.24
2018-06-10T04:07:35.907Z,20.24
2018-06-10T04:08:36.074Z,20.26
2018-06-10T04:09:36.248Z,20.32
2018-06-10T04:10:36.416Z,20.37
2018-06-10T04:11:36.587Z,20.32
2018-06-10T04:12:36.758Z,20.31
2018-06-10T04:15:19.324Z,20.24
2018-06-10T04:16:19.497Z,20.34
2018-06-10T04:17:19.666Z,20.24
2018-06-10T04:18:19.837Z,20.39
2018-06-10T04:19:20.005Z,20.40
2018-06-10T04:20:20.173Z,20.31
2018-06-10T04:21:20.351Z,20.31
2018-06-10T04:22:24.007Z,20.24
2018-06-10T04:23:20.745Z,20.24
2018-06-10T04:24:20.904Z,20.16
2018-06-10T04:26:53.191Z,19.95
2018-06-10T04:27:53.361Z,19.81
2018-06-10T04:28:53.532Z,19.84
2018-06-10T04:29:53.698Z,19.82
2018-06-10T04:30:53.875Z,19.89
2018-06-10T04:31:54.038Z,19.89
2018-06-10T04:32:54.213Z,20.06
2018-06-10T04:33:54.375Z,20.02
2018-06-10T04:34:54.545Z,19.91
2018-06-10T04:35:54.710Z,19.84
2018-06-10T04:38:26.994Z,20.04
2018-06-10T04:39:27.159Z,20.04
2018-06-10T04:40:27.344Z,19.92
2018-06-10T04:41:27.500Z,19.91
2018-06-10T04:42:27.704Z,20.06
2018-06-10T04:43:27.874Z,20.03
2018-06-10T04:44:28.109Z,20.06
2018-06-10T04:45:28.198Z,19.94
2018-06-10T04:46:28.366Z,20.07
2018-06-10T04:47:28.537Z,20.02
2018-06-10T04:48:28.704Z,20.02
2018-06-10T04:49:28.880Z,20.06
2018-06-10T04:50:29.049Z,20.16
2018-06-10T04:51:29.220Z,20.21
2018-06-10T04:52:29.386Z,20.25
2018-06-10T04:55:14.091Z,20.25
2018-06-10T04:56:11.741Z,20.32
2018-06-10T04:57:11.900Z,20.14
2018-06-10T04:58:12.101Z,20.16
2018-06-10T04:59:12.280Z,20.19
2018-06-10T05:00:12.452Z,20.26
2018-06-10T05:01:12.621Z,20.34
2018-06-10T05:02:12.788Z,20.36
2018-06-10T05:03:12.956Z,20.41
2018-06-10T05:04:13.129Z,20.36
2018-06-10T05:05:13.301Z,20.41
2018-06-10T05:06:13.463Z,20.44
2018-06-10T05:07:13.633Z,20.60
2018-06-10T05:08:13.802Z,20.58
2018-06-10T05:09:13.968Z,20.56
2018-06-10T05:11:46.274Z,20.41
2018-06-10T05:12:46.446Z,20.37
2018-06-10T05:13:46.612Z,20.24
2018-06-10T05:14:46.782Z,20.21
2018-06-10T05:15:46.949Z,20.06
2018-06-10T05:16:47.119Z,20.02
2018-06-10T05:17:47.287Z,19.88
2018-06-10T05:18:47.447Z,20.00
2018-06-10T05:19:47.712Z,20.02
2018-06-10T05:20:47.801Z,20.07
2018-06-10T05:23:30.082Z,20.29
2018-06-10T05:24:30.261Z,20.24
2018-06-10T05:25:30.420Z,20.04
2018-06-10T05:26:30.591Z,19.99
2018-06-10T05:27:30.757Z,20.03
2018-06-10T05:28:30.926Z,19.95
2018-06-10T05:29:31.095Z,19.91
2018-06-10T05:30:31.264Z,19.73
2018-06-10T05:31:31.437Z,19.81
2018-06-10T05:32:31.604Z,19.73
2018-06-10T05:33:31.771Z,19.82
2018-06-10T05:34:31.942Z,19.81
2018-06-10T05:35:32.112Z,19.85
2018-06-10T05:36:32.286Z,19.91
2018-06-10T05:37:32.447Z,20.04
2018-06-10T05:40:14.730Z,20.06
2018-06-10T05:41:17.747Z,20.10
2018-06-10T05:42:15.033Z,20.16
2018-06-10T05:43:15.256Z,20.18
2018-06-10T05:44:15.427Z,20.03
2018-06-10T05:45:15.591Z,19.91
2018-06-10T05:46:15.761Z,19.79
2018-06-10T05:47:15.958Z,19.76
2018-06-10T05:48:16.132Z,19.54
2018-06-10T05:49:16.294Z,19.66
2018-06-10T05:50:16.462Z,19.55
2018-06-10T05:51:16.661Z,19.51
2018-06-10T05:52:16.805Z,19.45
2018-06-10T05:53:16.968Z,19.40
2018-06-10T05:54:17.129Z,19.52
2018-06-10T05:56:49.395Z,19.52
2018-06-10T05:57:49.595Z,19.52
2018-06-10T05:58:49.779Z,19.49
2018-06-10T05:59:49.951Z,19.63
2018-06-10T06:00:50.116Z,19.66
2018-06-10T06:01:50.296Z,19.54
2018-06-10T06:02:50.464Z,19.52
2018-06-10T06:03:51.450Z,19.48
2018-06-10T06:04:50.746Z,19.49
2018-06-10T06:05:50.916Z,19.58
2018-06-10T06:06:51.090Z,19.52
2018-06-10T06:07:51.251Z,19.54
2018-06-10T06:08:51.419Z,19.52
2018-06-10T06:09:51.584Z,19.56
2018-06-10T06:10:51.750Z,19.64
2018-06-10T06:13:24.061Z,19.71
2018-06-10T06:14:24.197Z,19.81
2018-06-10T06:15:24.377Z,19.84
2018-06-10T06:16:24.546Z,19.86
2018-06-10T06:17:24.707Z,19.73
2018-06-10T06:18:24.879Z,19.81
2018-06-10T06:19:25.041Z,19.79
2018-06-10T06:20:25.214Z,19.63
2018-06-10T06:21:25.376Z,19.49
2018-06-10T06:22:25.552Z,19.58
2018-06-10T06:23:25.713Z,19.62
2018-06-10T06:24:25.884Z,19.56
2018-06-10T06:25:26.051Z,19.62
2018-06-10T06:26:26.219Z,19.67
2018-06-10T06:27:26.421Z,19.64
2018-06-10T06:29:58.667Z,19.71
2018-06-10T06:31:06.792Z,19.71
2018-06-10T06:31:58.955Z,19.70
2018-06-10T06:32:59.121Z,19.82
2018-06-10T06:33:59.289Z,19.76
2018-06-10T06:34:59.456Z,19.71
2018-06-10T06:35:59.629Z,19.71
2018-06-10T06:36:59.798Z,19.71
2018-06-10T06:37:59.966Z,19.82
2018-06-10T06:39:00.136Z,19.77
2018-06-10T06:40:00.304Z,19.81
2018-06-10T06:41:00.473Z,19.86
2018-06-10T06:42:00.638Z,19.77
2018-06-10T06:43:00.805Z,19.82
2018-06-10T06:44:00.976Z,19.81
2018-06-10T06:45:01.146Z,19.77
2018-06-10T06:46:01.315Z,19.85
2018-06-10T06:48:43.888Z,19.99
2018-06-10T06:49:44.057Z,19.94
2018-06-10T06:50:44.220Z,19.91
2018-06-10T06:51:44.388Z,19.96
2018-06-10T06:52:44.580Z,19.91
2018-06-10T06:53:44.740Z,19.92
2018-06-10T06:56:16.505Z,19.77
2018-06-10T06:57:16.671Z,19.77
2018-06-10T06:58:16.838Z,19.84
2018-06-10T06:59:17.004Z,19.81
2018-06-10T07:00:17.173Z,19.92
2018-06-10T07:01:17.374Z,19.94
2018-06-10T07:02:17.537Z,20.03
2018-06-10T07:03:17.703Z,20.07
2018-06-10T07:04:17.945Z,20.18
2018-06-10T07:05:18.034Z,20.22
2018-06-10T07:08:00.431Z,20.26
2018-06-10T07:09:00.587Z,20.26
2018-06-10T07:10:00.756Z,20.31
2018-06-10T07:11:00.925Z,20.16
2018-06-10T07:12:01.129Z,20.22
2018-06-10T07:13:01.292Z,20.11
2018-06-10T07:14:01.429Z,20.13
2018-06-10T07:15:01.625Z,20.26
2018-06-10T07:16:01.811Z,20.37
2018-06-10T07:17:01.975Z,20.39
2018-06-10T07:18:09.815Z,20.34
2018-06-10T07:19:02.345Z,20.39
2018-06-10T07:20:02.542Z,20.56
2018-06-10T07:21:02.683Z,20.58
2018-06-10T07:22:02.847Z,20.63
2018-06-10T07:23:03.017Z,20.67
2018-06-10T07:24:03.187Z,20.67
2018-06-10T07:25:03.353Z,20.81
2018-06-10T07:26:03.523Z,20.80
2018-06-10T07:27:03.694Z,20.93
2018-06-10T07:28:03.861Z,20.62
2018-06-10T07:29:04.032Z,20.66
2018-06-10T07:30:04.197Z,20.59
2018-06-10T07:31:04.362Z,20.55
2018-06-10T07:32:04.540Z,20.62
2018-06-10T07:34:46.802Z,20.62
2018-06-10T07:35:46.996Z,20.60
2018-06-10T07:36:47.169Z,20.63
2018-06-10T07:37:47.338Z,20.60
2018-06-10T07:38:47.503Z,20.65
2018-06-10T07:39:47.676Z,20.77
2018-06-10T07:40:47.858Z,20.92
2018-06-10T07:41:48.025Z,20.90
2018-06-10T07:42:48.194Z,21.05
2018-06-10T07:43:48.362Z,21.07
2018-06-10T07:44:48.530Z,21.25
2018-06-10T07:45:48.699Z,21.32
2018-06-10T07:46:48.868Z,21.37
2018-06-10T07:47:49.047Z,21.50
2018-06-10T07:48:49.221Z,21.46
2018-06-10T07:51:31.781Z,21.62
2018-06-10T07:52:31.951Z,21.70
2018-06-10T07:53:32.117Z,21.48
2018-06-10T07:54:32.298Z,21.42
2018-06-10T07:55:32.467Z,21.43
2018-06-10T07:56:32.657Z,21.40
2018-06-10T07:57:32.798Z,21.25
2018-06-10T07:58:32.966Z,21.33
2018-06-10T07:59:33.144Z,21.35
2018-06-10T08:00:33.314Z,21.40
2018-06-10T08:01:33.480Z,21.57
2018-06-10T08:02:33.650Z,21.60
2018-06-10T08:03:33.818Z,21.82
2018-06-10T08:04:33.989Z,21.92
2018-06-10T08:05:34.156Z,21.98
2018-06-10T08:08:06.740Z,22.08
2018-06-10T08:09:06.912Z,22.18
2018-06-10T08:10:07.085Z,22.04
2018-06-10T08:11:07.252Z,22.06
2018-06-10T08:12:07.451Z,22.04
2018-06-10T08:13:07.722Z,21.89
2018-06-10T08:14:07.788Z,21.92
2018-06-10T08:15:07.983Z,21.96
2018-06-10T08:16:08.145Z,21.91
2018-06-10T08:17:08.314Z,21.79
2018-06-10T08:18:09.498Z,21.88
2018-06-10T08:19:08.680Z,21.83
2018-06-10T08:20:08.843Z,21.93
2018-06-10T08:21:09.004Z,21.60
2018-06-10T08:22:09.198Z,21.50
2018-06-10T08:24:41.519Z,21.43
2018-06-10T08:25:41.684Z,21.42
2018-06-10T08:26:41.873Z,21.45
2018-06-10T08:27:42.044Z,21.39
2018-06-10T08:28:42.229Z,21.42
2018-06-10T08:29:42.389Z,21.40
2018-06-10T08:30:42.562Z,21.36
2018-06-10T08:31:42.743Z,21.18
2018-06-10T08:32:42.915Z,21.15
2018-06-10T08:33:43.079Z,21.12
2018-06-10T08:34:43.268Z,21.21
2018-06-10T08:35:43.454Z,21.11
2018-06-10T08:36:43.625Z,21.20
2018-06-10T08:37:43.796Z,21.22
2018-06-10T08:38:44.009Z,21.25
2018-06-10T08:39:51.915Z,21.30
2018-06-10T08:40:44.345Z,21.32
2018-06-10T08:41:52.010Z,21.33
2018-06-10T08:42:44.681Z,21.27
2018-06-10T08:43:44.875Z,21.33
2018-06-10T08:44:45.049Z,21.33
2018-06-10T08:45:45.217Z,21.18
2018-06-10T08:46:45.411Z,21.11
2018-06-10T08:47:45.624Z,21.12
2018-06-10T08:48:45.797Z,21.14
2018-06-10T08:49:45.966Z,21.11
2018-06-10T08:50:46.134Z,21.25
2018-06-10T08:51:46.379Z,21.25
2018-06-10T08:52:46.464Z,21.33
2018-06-10T08:53:46.642Z,21.42
2018-06-10T08:54:46.814Z,21.35
2018-06-10T08:55:46.990Z,21.32
2018-06-10T08:58:33.318Z,21.05
2018-06-10T08:59:33.498Z,21.06
2018-06-10T09:00:33.660Z,21.03
2018-06-10T09:01:41.067Z,21.12
2018-06-10T09:02:34.053Z,21.09
2018-06-10T09:03:34.177Z,21.06
2018-06-10T09:04:34.367Z,21.27
2018-06-10T09:05:34.560Z,21.33
2018-06-10T09:06:34.753Z,21.43
2018-06-10T09:07:34.933Z,21.50
2018-06-10T09:08:35.177Z,21.52
2018-06-10T09:09:35.311Z,21.52
2018-06-10T09:10:35.490Z,21.64
2018-06-10T09:11:35.677Z,21.67
2018-06-10T09:12:35.855Z,21.73
2018-06-10T09:13:36.047Z,21.66
2018-06-10T09:14:36.215Z,21.69
2018-06-10T09:15:36.377Z,21.61
2018-06-10T09:18:19.003Z,21.39
2018-06-10T09:19:19.181Z,21.42
2018-06-10T09:20:19.353Z,21.51
2018-06-10T09:21:19.551Z,21.39
2018-06-10T09:22:19.720Z,21.40
2018-06-10T09:23:19.907Z,21.48
2018-06-10T09:24:20.074Z,21.39
2018-06-10T09:25:20.258Z,21.43
2018-06-10T09:26:20.461Z,21.64
2018-06-10T09:27:20.649Z,21.80
2018-06-10T09:28:20.831Z,21.70
2018-06-10T09:29:21.008Z,21.82
2018-06-10T09:30:21.175Z,21.77
2018-06-10T09:31:21.355Z,21.70
2018-06-10T09:32:21.526Z,21.69
2018-06-10T09:35:04.149Z,21.73
2018-06-10T09:36:04.315Z,21.66
2018-06-10T09:37:04.505Z,21.72
2018-06-10T09:38:04.672Z,21.72
2018-06-10T09:39:04.849Z,21.82
2018-06-10T09:40:05.010Z,21.91
2018-06-10T09:41:05.203Z,21.88
2018-06-10T09:42:05.456Z,22.00
2018-06-10T09:43:05.596Z,22.07
2018-06-10T09:44:05.770Z,22.07
2018-06-10T09:46:48.048Z,22.22
2018-06-10T09:47:50.094Z,22.11
2018-06-10T09:48:48.383Z,22.23
2018-06-10T09:49:48.584Z,22.32
2018-06-10T09:50:48.735Z,22.43
2018-06-10T09:51:49.567Z,22.36
2018-06-10T09:52:49.129Z,22.45
2018-06-10T09:53:49.295Z,22.38
2018-06-10T09:54:49.465Z,22.35
2018-06-10T09:55:49.643Z,22.43
2018-06-10T09:56:49.812Z,22.43
2018-06-10T09:57:49.983Z,22.47
2018-06-10T09:58:50.161Z,22.57
2018-06-10T09:59:50.351Z,22.38
2018-06-10T10:00:50.543Z,22.41
2018-06-10T10:03:23.220Z,22.51
2018-06-10T10:04:23.288Z,22.45
2018-06-10T10:05:23.461Z,22.43
2018-06-10T10:06:23.643Z,22.44
2018-06-10T10:07:23.834Z,22.59
2018-06-10T10:08:23.998Z,22.70
2018-06-10T10:09:24.172Z,22.81
2018-06-10T10:10:24.882Z,22.90
2018-06-10T10:11:24.538Z,22.90
2018-06-10T10:12:24.717Z,23.13
2018-06-10T10:13:24.887Z,23.09
2018-06-10T10:14:25.092Z,23.15
2018-06-10T10:15:25.232Z,23.28
2018-06-10T10:16:25.400Z,23.27
2018-06-10T10:17:25.568Z,23.23
2018-06-10T10:20:08.231Z,22.98
2018-06-10T10:21:08.429Z,22.88
2018-06-10T10:22:08.676Z,22.84
2018-06-10T10:23:16.037Z,22.90
2018-06-10T10:24:08.957Z,22.81
2018-06-10T10:25:16.662Z,22.81
2018-06-10T10:26:09.323Z,22.84
2018-06-10T10:27:09.523Z,22.90
2018-06-10T10:28:09.692Z,23.06
2018-06-10T10:29:09.856Z,23.10
2018-06-10T10:30:10.049Z,23.08
2018-06-10T10:31:10.213Z,23.02
2018-06-10T10:32:10.392Z,23.20
2018-06-10T10:33:11.429Z,23.17
2018-06-10T10:34:10.721Z,23.41
2018-06-10T10:35:10.949Z,23.23
2018-06-10T10:39:41.588Z,23.47
2018-06-10T10:40:41.756Z,23.69
2018-06-10T10:41:41.925Z,23.77
2018-06-10T10:42:42.104Z,23.80
2018-06-10T10:43:49.769Z,24.02
2018-06-10T10:44:42.459Z,24.17
2018-06-10T10:45:42.633Z,24.30
2018-06-10T10:46:42.802Z,24.43
2018-06-10T10:47:42.971Z,24.43
2018-06-10T10:48:43.137Z,24.65
2018-06-10T10:49:43.309Z,24.61
2018-06-10T10:50:43.476Z,24.77
2018-06-10T10:51:43.659Z,24.88
2018-06-10T10:52:43.833Z,25.10
2018-06-10T10:53:45.999Z,24.88
2018-06-10T10:56:27.601Z,24.98
2018-06-10T10:57:27.820Z,24.86
2018-06-10T10:58:27.987Z,24.98
2018-06-10T10:59:28.189Z,25.07
2018-06-10T11:00:28.373Z,25.11
2018-06-10T11:01:28.538Z,25.21
2018-06-10T11:02:28.719Z,25.22
2018-06-10T11:03:28.877Z,25.25
2018-06-10T11:04:29.047Z,25.40
2018-06-10T11:05:29.221Z,25.48
2018-06-10T11:08:11.527Z,25.58
2018-06-10T11:09:11.707Z,25.63
2018-06-10T11:10:11.903Z,25.36
2018-06-10T11:11:12.071Z,24.96
2018-06-10T11:12:12.251Z,24.69
2018-06-10T11:13:12.417Z,24.57
2018-06-10T11:14:12.604Z,24.76
2018-06-10T11:15:12.827Z,24.77
2018-06-10T11:16:12.916Z,24.99
2018-06-10T11:17:13.203Z,25.18
2018-06-10T11:18:13.320Z,25.23
2018-06-10T11:19:13.483Z,25.41
2018-06-10T11:20:13.657Z,25.46
2018-06-10T11:21:13.842Z,25.35
2018-06-10T11:22:14.047Z,25.47
2018-06-10T11:24:46.647Z,25.72
2018-06-10T11:25:46.850Z,25.77
2018-06-10T11:26:47.040Z,25.48
2018-06-10T11:27:47.213Z,25.25
2018-06-10T11:28:47.409Z,25.31
2018-06-10T11:29:54.747Z,25.21
2018-06-10T11:30:47.808Z,25.08
2018-06-10T11:31:47.979Z,25.08
2018-06-10T11:32:48.151Z,25.14
2018-06-10T11:33:48.318Z,25.35
2018-06-10T11:34:48.492Z,25.50
2018-06-10T11:35:48.714Z,25.69
2018-06-10T11:36:48.921Z,25.80
2018-06-10T11:37:49.195Z,26.00
2018-06-10T11:38:49.265Z,25.87
2018-06-10T11:42:21.903Z,26.02
2018-06-10T11:43:21.928Z,25.99
2018-06-10T11:44:22.098Z,25.95
2018-06-10T11:45:22.292Z,25.93
2018-06-10T11:46:22.483Z,25.91
2018-06-10T11:47:22.682Z,25.60
2018-06-10T11:48:22.864Z,25.43
2018-06-10T11:49:23.094Z,25.62
2018-06-10T11:50:23.215Z,25.68
2018-06-10T11:51:25.323Z,25.83
2018-06-10T11:53:56.283Z,26.23
2018-06-10T11:54:56.103Z,26.34
2018-06-10T11:55:56.296Z,26.29
2018-06-10T11:56:56.448Z,26.31
2018-06-10T11:57:56.652Z,26.15
2018-06-10T11:58:56.787Z,26.29
2018-06-10T11:59:56.988Z,26.36
2018-06-10T12:00:57.166Z,26.13
2018-06-10T12:01:57.360Z,26.13
2018-06-10T12:02:57.539Z,26.18
2018-06-10T12:03:57.711Z,26.10
2018-06-10T12:04:57.901Z,26.25
2018-06-10T12:05:58.113Z,26.26
2018-06-10T12:08:30.486Z,26.16
2018-06-10T12:09:30.683Z,26.13
2018-06-10T12:10:30.865Z,26.15
2018-06-10T12:11:31.052Z,26.13
2018-06-10T12:12:31.232Z,26.19
2018-06-10T12:13:31.433Z,26.09
2018-06-10T12:14:31.613Z,26.21
2018-06-10T12:15:31.808Z,26.38
2018-06-10T12:16:31.991Z,26.44
2018-06-10T12:17:32.956Z,26.63
2018-06-10T12:20:05.432Z,26.45
2018-06-10T12:21:04.599Z,26.15
2018-06-10T12:22:04.769Z,26.19
2018-06-10T12:23:04.956Z,26.23
2018-06-10T12:24:05.167Z,26.36
2018-06-10T12:25:05.520Z,26.44
2018-06-10T12:26:13.512Z,26.36
2018-06-10T12:27:05.671Z,26.41
2018-06-10T12:28:06.407Z,26.60
2018-06-10T12:29:14.032Z,26.66
2018-06-10T12:30:06.933Z,26.77
2018-06-10T12:31:06.243Z,26.68
2018-06-10T12:32:06.486Z,26.74
2018-06-10T12:33:06.585Z,26.74
2018-06-10T12:34:06.766Z,26.81
2018-06-10T12:35:07.962Z,26.78
2018-06-10T12:36:07.127Z,26.88
2018-06-10T12:37:07.306Z,27.08
2018-06-10T12:38:07.636Z,27.30
2018-06-10T12:39:07.642Z,27.37
2018-06-10T12:41:49.977Z,27.42
2018-06-10T12:42:50.018Z,27.47
2018-06-10T12:43:50.184Z,27.64
2018-06-10T12:44:50.639Z,27.74
2018-06-10T12:45:50.478Z,27.74
2018-06-10T12:46:50.772Z,27.59
2018-06-10T12:47:50.863Z,27.78
2018-06-10T12:48:51.060Z,27.73
2018-06-10T12:49:51.228Z,27.54
2018-06-10T12:50:58.685Z,27.60
2018-06-10T12:51:51.757Z,27.67
2018-06-10T12:52:52.466Z,27.67
2018-06-10T12:53:51.921Z,27.58
2018-06-10T12:54:52.817Z,27.68
2018-06-10T12:55:52.269Z,27.51
2018-06-10T12:56:52.532Z,27.59
2018-06-10T12:57:52.889Z,27.52
2018-06-10T12:58:52.902Z,27.67
2018-06-10T12:59:52.979Z,27.67
2018-06-10T13:00:53.153Z,27.70
2018-06-10T13:03:25.782Z,27.59
2018-06-10T13:04:26.074Z,27.33
2018-06-10T13:05:26.227Z,27.22
2018-06-10T13:06:26.336Z,27.33
2018-06-10T13:07:27.139Z,27.47
2018-06-10T13:08:26.682Z,27.55
2018-06-10T13:09:26.875Z,27.40
2018-06-10T13:10:27.133Z,27.45
2018-06-10T13:11:27.245Z,27.55
2018-06-10T13:12:28.093Z,27.64
2018-06-10T13:15:09.568Z,27.83
2018-06-10T13:16:10.358Z,27.85
2018-06-10T13:17:17.500Z,27.92
2018-06-10T13:18:10.040Z,27.87
2018-06-10T13:19:10.313Z,27.92
2018-06-10T13:20:10.425Z,27.90
2018-06-10T13:21:10.599Z,27.98
2018-06-10T13:22:10.829Z,28.04
2018-06-10T13:23:10.938Z,28.04
2018-06-10T13:24:11.120Z,28.04
2018-06-10T13:25:11.350Z,28.07
2018-06-10T13:26:11.457Z,27.95
2018-06-10T13:27:12.651Z,28.05
2018-06-10T13:28:12.606Z,28.10
2018-06-10T13:29:12.028Z,28.07
2018-06-10T13:30:12.248Z,28.05
2018-06-10T13:31:12.394Z,28.07
2018-06-10T13:32:20.580Z,28.05
2018-06-10T13:33:12.777Z,28.15
2018-06-10T13:34:12.949Z,28.17
2018-06-10T13:35:13.131Z,28.25
2018-06-10T13:36:13.315Z,28.27
2018-06-10T13:37:13.501Z,28.17
2018-06-10T13:38:13.690Z,28.17
2018-06-10T13:39:13.879Z,28.10
2018-06-10T13:40:14.061Z,28.04
2018-06-10T13:41:14.237Z,28.01
2018-06-10T13:42:15.167Z,27.86
2018-06-10T13:43:14.667Z,27.96
2018-06-10T13:44:14.877Z,27.89
2018-06-10T13:45:15.662Z,27.77
2018-06-10T13:46:15.203Z,27.77
2018-06-10T13:48:59.490Z,27.93
2018-06-10T13:49:57.909Z,27.92
2018-06-10T13:50:58.853Z,27.85
2018-06-10T13:51:58.896Z,27.82
2018-06-10T13:52:58.327Z,27.93
2018-06-10T13:53:58.708Z,28.01
2018-06-10T13:54:58.808Z,28.04
2018-06-10T13:55:59.020Z,28.07
2018-06-10T13:56:59.143Z,28.10
2018-06-10T13:57:59.387Z,28.01
2018-06-10T14:00:49.403Z,28.01
2018-06-10T14:01:42.086Z,28.00
2018-06-10T14:02:42.395Z,27.77
2018-06-10T14:03:42.466Z,27.96
2018-06-10T14:04:42.987Z,28.04
2018-06-10T14:05:50.806Z,28.07
2018-06-10T14:06:43.027Z,28.17
2018-06-10T14:07:43.217Z,28.22
2018-06-10T14:08:43.394Z,28.23
2018-06-10T14:09:43.560Z,28.32
2018-06-10T14:10:43.750Z,28.26
2018-06-10T14:11:44.645Z,28.27
2018-06-10T14:12:44.080Z,28.05
2018-06-10T14:13:44.246Z,27.92
2018-06-10T14:14:44.423Z,28.05
2018-06-10T14:15:44.601Z,28.08
2018-06-10T14:18:27.938Z,28.14
2018-06-10T14:19:36.802Z,28.35
2018-06-10T14:20:28.245Z,28.32
2018-06-10T14:21:28.407Z,28.29
2018-06-10T14:22:28.588Z,28.44
2018-06-10T14:23:28.793Z,28.44
2018-06-10T14:24:38.806Z,28.47
2018-06-10T14:25:29.119Z,28.38
2018-06-10T14:26:29.336Z,28.41
2018-06-10T14:27:29.670Z,28.37
2018-06-10T14:28:29.734Z,28.39